createdAt,value
2024-02-14T00:00:29.694Z,7.34
2024-02-14T00:01:29.745Z,7.37
2024-02-14T00:02:29.716Z,7.34
2024-02-14T00:03:29.672Z,7.32
2024-02-14T00:04:29.709Z,7.32
2024-02-14T00:05:29.678Z,7.32
2024-02-14T00:06:29.684Z,7.29
2024-02-14T00:07:29.642Z,7.29
2024-02-14T00:08:29.629Z,7.29
2024-02-14T00:09:29.630Z,7.29
2024-02-14T00:10:29.612Z,7.24
2024-02-14T00:11:29.599Z,7.23
2024-02-14T00:12:29.584Z,7.23
2024-02-14T00:13:29.582Z,7.22
2024-02-14T00:14:29.607Z,7.22
2024-02-14T00:15:29.638Z,7.20
2024-02-14T00:16:29.584Z,7.19
2024-02-14T00:17:29.653Z,7.19
2024-02-14T00:18:29.692Z,7.17
2024-02-14T00:19:29.539Z,7.17
2024-02-14T00:20:29.570Z,7.17
2024-02-14T00:21:29.493Z,7.16
2024-02-14T00:22:29.456Z,7.15
2024-02-14T00:23:29.459Z,7.15
2024-02-14T00:24:29.453Z,7.17
2024-02-14T00:25:29.422Z,7.17
2024-02-14T00:26:29.490Z,7.16
2024-02-14T00:27:29.409Z,7.16
2024-02-14T00:28:29.405Z,7.16
2024-02-14T00:29:29.452Z,7.16
2024-02-14T00:30:30.981Z,7.16
2024-02-14T00:31:29.386Z,7.15
2024-02-14T00:32:29.511Z,7.15
2024-02-14T00:33:29.575Z,7.15
2024-02-14T00:34:29.493Z,7.13
2024-02-14T00:35:29.423Z,7.16
2024-02-14T00:36:29.316Z,7.15
2024-02-14T00:37:29.311Z,7.15
2024-02-14T00:38:29.319Z,7.13
2024-02-14T00:39:29.271Z,7.15
2024-02-14T00:40:29.286Z,7.15
2024-02-14T00:41:29.329Z,7.13
2024-02-14T00:42:29.260Z,7.09
2024-02-14T00:43:29.251Z,7.08
2024-02-14T00:44:29.300Z,7.08
2024-02-14T00:45:29.205Z,7.09
2024-02-14T00:46:29.199Z,7.12
2024-02-14T00:47:29.383Z,7.09
2024-02-14T00:48:29.346Z,7.12
2024-02-14T00:49:29.276Z,7.08
2024-02-14T00:50:29.270Z,7.12
2024-02-14T00:51:29.152Z,7.16
2024-02-14T00:52:29.148Z,7.15
2024-02-14T00:53:29.225Z,7.15
2024-02-14T00:54:29.131Z,7.16
2024-02-14T00:55:29.118Z,7.17
2024-02-14T00:56:29.184Z,7.16
2024-02-14T00:57:29.086Z,7.12
2024-02-14T00:58:29.128Z,7.12
2024-02-14T00:59:29.159Z,7.12
2024-02-14T01:00:29.064Z,7.12
2024-02-14T01:01:29.049Z,7.08
2024-02-14T01:02:29.137Z,7.07
2024-02-14T01:03:29.055Z,7.09
2024-02-14T01:04:29.029Z,7.12
2024-02-14T01:05:29.217Z,7.13
2024-02-14T01:06:29.025Z,7.13
2024-02-14T01:07:29.010Z,7.12
2024-02-14T01:08:28.956Z,7.12
2024-02-14T01:09:28.961Z,7.13
2024-02-14T01:10:28.954Z,7.13
2024-02-14T01:11:28.975Z,7.12
2024-02-14T01:12:28.915Z,7.12
2024-02-14T01:13:28.910Z,7.15
2024-02-14T01:14:28.990Z,7.15
2024-02-14T01:15:28.898Z,7.13
2024-02-14T01:16:28.868Z,7.16
2024-02-14T01:17:28.934Z,7.16
2024-02-14T01:18:28.921Z,7.19
2024-02-14T01:19:28.869Z,7.17
2024-02-14T01:20:28.878Z,7.20
2024-02-14T01:21:28.819Z,7.20
2024-02-14T01:22:28.821Z,7.19
2024-02-14T01:23:28.878Z,7.19
2024-02-14T01:24:28.784Z,7.19
2024-02-14T01:25:28.768Z,7.22
2024-02-14T01:26:28.799Z,7.23
2024-02-14T01:27:28.765Z,7.20
2024-02-14T01:28:28.732Z,7.20
2024-02-14T01:29:28.746Z,7.20
2024-02-14T01:30:28.770Z,7.23
2024-02-14T01:31:28.756Z,7.23
2024-02-14T01:32:28.769Z,7.23
2024-02-14T01:33:28.832Z,7.23
2024-02-14T01:34:28.734Z,7.20
2024-02-14T01:35:28.710Z,7.22
2024-02-14T01:36:28.662Z,7.22
2024-02-14T01:37:28.688Z,7.20
2024-02-14T01:38:28.647Z,7.22
2024-02-14T01:39:28.653Z,7.20
2024-02-14T01:40:28.634Z,7.17
2024-02-14T01:41:28.652Z,7.20
2024-02-14T01:42:28.596Z,7.20
2024-02-14T01:43:28.585Z,7.22
2024-02-14T01:44:28.648Z,7.22
2024-02-14T01:45:28.561Z,7.22
2024-02-14T01:46:28.583Z,7.23
2024-02-14T01:47:28.643Z,7.23
2024-02-14T01:48:28.712Z,7.24
2024-02-14T01:49:28.598Z,7.24
2024-02-14T01:50:28.551Z,7.23
2024-02-14T01:51:28.500Z,7.23
2024-02-14T01:52:28.511Z,7.26
2024-02-14T01:53:28.551Z,7.24
2024-02-14T01:54:28.454Z,7.23
2024-02-14T01:55:28.451Z,7.27
2024-02-14T01:56:28.503Z,7.27
2024-02-14T01:57:28.458Z,7.27
2024-02-14T01:58:28.426Z,7.31
2024-02-14T01:59:28.468Z,7.31
2024-02-14T02:00:28.404Z,7.27
2024-02-14T02:01:28.411Z,7.26
2024-02-14T02:02:28.439Z,7.27
2024-02-14T02:03:28.509Z,7.26
2024-02-14T02:04:28.356Z,7.26
2024-02-14T02:05:28.439Z,7.26
2024-02-14T02:06:28.357Z,7.26
2024-02-14T02:07:28.332Z,7.27
2024-02-14T02:08:28.353Z,7.27
2024-02-14T02:09:28.314Z,7.27
2024-02-14T02:10:28.342Z,7.31
2024-02-14T02:11:28.315Z,7.29
2024-02-14T02:12:28.276Z,7.31
2024-02-14T02:13:28.421Z,7.31
2024-02-14T02:14:28.298Z,7.31
2024-02-14T02:15:28.239Z,7.29
2024-02-14T02:16:28.258Z,7.31
2024-02-14T02:17:28.314Z,7.29
2024-02-14T02:18:28.286Z,7.31
2024-02-14T02:19:28.312Z,7.32
2024-02-14T02:20:28.279Z,7.31
2024-02-14T02:21:28.219Z,7.34
2024-02-14T02:22:28.211Z,7.32
2024-02-14T02:23:28.185Z,7.34
2024-02-14T02:24:28.159Z,7.34
2024-02-14T02:25:28.360Z,7.35
2024-02-14T02:26:28.122Z,7.38
2024-02-14T02:27:28.117Z,7.38
2024-02-14T02:28:28.111Z,7.40
2024-02-14T02:29:28.118Z,7.38
2024-02-14T02:30:28.073Z,7.42
2024-02-14T02:31:28.065Z,7.41
2024-02-14T02:32:28.152Z,7.44
2024-02-14T02:33:28.201Z,7.44
2024-02-14T02:34:28.171Z,7.44
2024-02-14T02:35:28.099Z,7.44
2024-02-14T02:36:28.022Z,7.45
2024-02-14T02:37:28.484Z,7.47
2024-02-14T02:38:28.062Z,7.47
2024-02-14T02:39:28.599Z,7.45
2024-02-14T02:40:27.981Z,7.50
2024-02-14T02:41:27.990Z,7.50
2024-02-14T02:42:27.956Z,7.49
2024-02-14T02:43:28.007Z,7.47
2024-02-14T02:44:27.954Z,7.49
2024-02-14T02:45:27.917Z,7.45
2024-02-14T02:46:27.913Z,7.47
2024-02-14T02:47:27.945Z,7.45
2024-02-14T02:48:34.517Z,7.44
2024-02-14T02:49:27.894Z,7.49
2024-02-14T02:50:27.927Z,7.49
2024-02-14T02:51:27.843Z,7.47
2024-02-14T02:52:27.833Z,7.47
2024-02-14T02:53:27.915Z,7.44
2024-02-14T02:54:27.838Z,7.49
2024-02-14T02:55:27.900Z,7.47
2024-02-14T02:56:27.816Z,7.49
2024-02-14T02:57:27.815Z,7.47
2024-02-14T02:58:27.811Z,7.49
2024-02-14T02:59:27.803Z,7.47
2024-02-14T03:00:27.779Z,7.49
2024-02-14T03:01:27.783Z,7.49
2024-02-14T03:02:27.797Z,7.53
2024-02-14T03:03:27.725Z,7.52
2024-02-14T03:04:41.312Z,7.53
2024-02-14T03:05:27.768Z,7.52
2024-02-14T03:06:27.733Z,7.55
2024-02-14T03:07:27.683Z,7.56
2024-02-14T03:08:27.710Z,7.58
2024-02-14T03:09:27.654Z,7.58
2024-02-14T03:10:27.654Z,7.56
2024-02-14T03:11:27.644Z,7.53
2024-02-14T03:12:27.624Z,7.58
2024-02-14T03:13:27.747Z,7.56
2024-02-14T03:14:27.603Z,7.56
2024-02-14T03:15:27.651Z,7.60
2024-02-14T03:16:27.586Z,7.62
2024-02-14T03:17:27.688Z,7.60
2024-02-14T03:18:27.622Z,7.63
2024-02-14T03:19:27.565Z,7.62
2024-02-14T03:20:27.643Z,7.62
2024-02-14T03:21:27.524Z,7.62
2024-02-14T03:22:27.529Z,7.63
2024-02-14T03:23:27.517Z,7.66
2024-02-14T03:24:27.527Z,7.63
2024-02-14T03:25:27.539Z,7.67
2024-02-14T03:26:27.520Z,7.67
2024-02-14T03:27:27.481Z,7.69
2024-02-14T03:28:27.471Z,7.69
2024-02-14T03:29:27.497Z,7.67
2024-02-14T03:30:27.454Z,7.67
2024-02-14T03:31:27.420Z,7.69
2024-02-14T03:32:27.465Z,7.71
2024-02-14T03:33:27.494Z,7.71
2024-02-14T03:34:27.473Z,7.71
2024-02-14T03:35:27.405Z,7.71
2024-02-14T03:36:27.364Z,7.71
2024-02-14T03:37:27.359Z,7.74
2024-02-14T03:38:27.443Z,7.72
2024-02-14T03:39:27.347Z,7.72
2024-02-14T03:40:27.319Z,7.72
2024-02-14T03:41:27.339Z,7.72
2024-02-14T03:42:27.320Z,7.74
2024-02-14T03:43:27.291Z,7.74
2024-02-14T03:44:27.567Z,7.75
2024-02-14T03:45:27.280Z,7.77
2024-02-14T03:46:27.293Z,7.79
2024-02-14T03:47:27.335Z,7.75
2024-02-14T03:48:27.437Z,7.77
2024-02-14T03:49:27.269Z,7.75
2024-02-14T03:50:27.254Z,7.75
2024-02-14T03:51:27.216Z,7.78
2024-02-14T03:52:27.200Z,7.77
2024-02-14T03:53:27.229Z,7.78
2024-02-14T03:54:27.217Z,7.77
2024-02-14T03:55:27.156Z,7.77
2024-02-14T03:56:27.198Z,7.78
2024-02-14T03:57:27.212Z,7.77
2024-02-14T03:58:27.144Z,7.79
2024-02-14T03:59:27.168Z,7.78
2024-02-14T04:00:27.148Z,7.77
2024-02-14T04:01:27.155Z,7.78
2024-02-14T04:02:27.143Z,7.78
2024-02-14T04:03:27.145Z,7.77
2024-02-14T04:04:27.109Z,7.75
2024-02-14T04:05:27.133Z,7.74
2024-02-14T04:06:27.098Z,7.75
2024-02-14T04:07:27.057Z,7.75
2024-02-14T04:08:27.126Z,7.77
2024-02-14T04:09:27.127Z,7.75
2024-02-14T04:10:27.014Z,7.77
2024-02-14T04:11:27.035Z,7.75
2024-02-14T04:12:27.002Z,7.75
2024-02-14T04:13:26.967Z,7.78
2024-02-14T04:14:26.972Z,7.78
2024-02-14T04:15:26.973Z,7.77
2024-02-14T04:16:26.972Z,7.81
2024-02-14T04:17:27.012Z,7.81
2024-02-14T04:18:27.069Z,7.79
2024-02-14T04:19:27.152Z,7.82
2024-02-14T04:20:26.937Z,7.79
2024-02-14T04:21:26.910Z,7.79
2024-02-14T04:22:26.891Z,7.85
2024-02-14T04:23:26.936Z,7.82
2024-02-14T04:24:26.871Z,7.87
2024-02-14T04:25:26.889Z,7.87
2024-02-14T04:26:26.859Z,7.87
2024-02-14T04:27:26.845Z,7.84
2024-02-14T04:28:26.824Z,7.84
2024-02-14T04:29:26.823Z,7.85
2024-02-14T04:30:26.809Z,7.82
2024-02-14T04:31:26.788Z,7.84
2024-02-14T04:32:26.932Z,7.82
2024-02-14T04:33:26.922Z,7.82
2024-02-14T04:34:26.901Z,7.84
2024-02-14T04:35:26.804Z,7.87
2024-02-14T04:36:26.752Z,7.85
2024-02-14T04:37:26.776Z,7.87
2024-02-14T04:38:26.688Z,7.87
2024-02-14T04:39:26.773Z,7.89
2024-02-14T04:40:26.695Z,7.87
2024-02-14T04:41:26.686Z,7.90
2024-02-14T04:42:26.784Z,7.92
2024-02-14T04:43:26.669Z,7.92
2024-02-14T04:44:26.670Z,7.94
2024-02-14T04:45:26.664Z,7.94
2024-02-14T04:46:26.627Z,7.96
2024-02-14T04:47:26.634Z,7.96
2024-02-14T04:48:26.711Z,7.99
2024-02-14T04:49:26.632Z,7.97
2024-02-14T04:50:26.639Z,7.96
2024-02-14T04:51:26.628Z,7.97
2024-02-14T04:52:26.561Z,7.99
2024-02-14T04:53:26.687Z,8.00
2024-02-14T04:54:26.545Z,7.99
2024-02-14T04:55:26.562Z,7.99
2024-02-14T04:56:26.526Z,8.00
2024-02-14T04:57:26.684Z,8.00
2024-02-14T04:58:26.498Z,8.02
2024-02-14T04:59:26.609Z,8.03
2024-02-14T05:00:26.621Z,8.03
2024-02-14T05:01:26.530Z,8.04
2024-02-14T05:02:26.497Z,8.00
2024-02-14T05:03:26.503Z,8.02
2024-02-14T05:04:26.436Z,8.03
2024-02-14T05:05:26.572Z,8.03
2024-02-14T05:06:26.534Z,8.07
2024-02-14T05:07:26.410Z,8.07
2024-02-14T05:08:26.440Z,8.04
2024-02-14T05:09:26.383Z,8.04
2024-02-14T05:10:26.403Z,8.04
2024-02-14T05:11:26.428Z,8.07
2024-02-14T05:12:26.360Z,8.07
2024-02-14T05:13:26.397Z,8.07
2024-02-14T05:14:26.430Z,8.11
2024-02-14T05:15:26.389Z,8.11
2024-02-14T05:16:26.331Z,8.08
2024-02-14T05:17:26.390Z,8.12
2024-02-14T05:18:26.433Z,8.14
2024-02-14T05:19:26.443Z,8.12
2024-02-14T05:20:26.430Z,8.11
2024-02-14T05:21:26.261Z,8.10
2024-02-14T05:22:26.279Z,8.11
2024-02-14T05:23:26.366Z,8.08
2024-02-14T05:24:26.249Z,8.11
2024-02-14T05:25:26.224Z,8.14
2024-02-14T05:26:26.219Z,8.12
2024-02-14T05:27:26.198Z,8.15
2024-02-14T05:28:26.197Z,8.12
2024-02-14T05:29:26.210Z,8.12
2024-02-14T05:30:26.189Z,8.14
2024-02-14T05:31:26.144Z,8.15
2024-02-14T05:32:26.178Z,8.17
2024-02-14T05:33:26.575Z,8.15
2024-02-14T05:34:26.337Z,8.15
2024-02-14T05:35:26.179Z,8.18
2024-02-14T05:36:26.117Z,8.18
2024-02-14T05:37:26.128Z,8.18
2024-02-14T05:38:26.079Z,8.20
2024-02-14T05:39:26.109Z,8.18
2024-02-14T05:40:26.115Z,8.15
2024-02-14T05:41:26.076Z,8.17
2024-02-14T05:42:26.023Z,8.20
2024-02-14T05:43:26.021Z,8.17
2024-02-14T05:44:26.044Z,8.21
2024-02-14T05:45:26.005Z,8.20
2024-02-14T05:46:25.995Z,8.21
2024-02-14T05:47:26.026Z,8.21
2024-02-14T05:48:26.160Z,8.18
2024-02-14T05:49:26.172Z,8.20
2024-02-14T05:50:26.192Z,8.18
2024-02-14T05:51:25.954Z,8.21
2024-02-14T05:52:25.917Z,8.20
2024-02-14T05:53:25.912Z,8.22
2024-02-14T05:54:25.910Z,8.25
2024-02-14T05:55:25.928Z,8.26
2024-02-14T05:56:25.889Z,8.26
2024-02-14T05:57:25.876Z,8.28
2024-02-14T05:58:25.856Z,8.26
2024-02-14T05:59:25.880Z,8.29
2024-02-14T06:02:09.002Z,8.28
2024-02-14T06:04:23.959Z,8.26
2024-02-14T06:05:24.990Z,8.28
2024-02-14T06:06:25.125Z,8.30
2024-02-14T06:07:24.965Z,8.30
2024-02-14T06:08:24.925Z,8.30
2024-02-14T06:09:24.911Z,8.30
2024-02-14T06:10:24.910Z,8.29
2024-02-14T06:11:24.896Z,8.26
2024-02-14T06:12:24.871Z,8.28
2024-02-14T06:13:24.852Z,8.28
2024-02-14T06:14:24.870Z,8.32
2024-02-14T06:15:24.850Z,8.30
2024-02-14T06:16:24.846Z,8.32
2024-02-14T06:17:24.828Z,8.32
2024-02-14T06:18:24.921Z,8.32
2024-02-14T06:19:24.825Z,8.33
2024-02-14T06:20:24.847Z,8.35
2024-02-14T06:21:24.830Z,8.36
2024-02-14T06:22:24.760Z,8.36
2024-02-14T06:23:24.754Z,8.33
2024-02-14T06:24:24.772Z,8.35
2024-02-14T06:25:24.736Z,8.32
2024-02-14T06:26:24.784Z,8.32
2024-02-14T06:27:24.703Z,8.35
2024-02-14T06:28:24.703Z,8.35
2024-02-14T06:29:25.255Z,8.36
2024-02-14T06:30:25.767Z,8.37
2024-02-14T06:31:24.642Z,8.40
2024-02-14T06:32:24.661Z,8.40
2024-02-14T06:33:24.950Z,8.42
2024-02-14T06:34:24.869Z,8.39
2024-02-14T06:35:24.767Z,8.39
2024-02-14T06:36:24.605Z,8.37
2024-02-14T06:37:24.545Z,8.37
2024-02-14T06:38:24.558Z,8.39
2024-02-14T06:39:24.567Z,8.40
2024-02-14T06:40:24.533Z,8.40
2024-02-14T06:41:24.508Z,8.40
2024-02-14T06:42:24.513Z,8.40
2024-02-14T06:43:24.541Z,8.40
2024-02-14T06:44:24.474Z,8.42
2024-02-14T06:45:24.474Z,8.39
2024-02-14T06:46:24.454Z,8.44
2024-02-14T06:47:24.492Z,8.47
2024-02-14T06:48:24.662Z,8.50
2024-02-14T06:49:24.555Z,8.50
2024-02-14T06:50:24.417Z,8.50
2024-02-14T06:51:24.410Z,8.50
2024-02-14T06:52:24.396Z,8.53
2024-02-14T06:53:24.390Z,8.47
2024-02-14T06:54:24.404Z,8.45
2024-02-14T06:55:24.353Z,8.44
2024-02-14T06:56:24.348Z,8.48
2024-02-14T06:57:24.360Z,8.48
2024-02-14T06:58:24.331Z,8.47
2024-02-14T06:59:24.357Z,8.45
2024-02-14T07:00:24.312Z,8.48
2024-02-14T07:01:24.306Z,8.51
2024-02-14T07:02:24.324Z,8.44
2024-02-14T07:03:24.343Z,8.42
2024-02-14T07:04:24.285Z,8.45
2024-02-14T07:05:24.267Z,8.51
2024-02-14T07:06:24.428Z,8.48
2024-02-14T07:07:24.220Z,8.50
2024-02-14T07:08:24.228Z,8.51
2024-02-14T07:09:24.239Z,8.51
2024-02-14T07:10:24.223Z,8.54
2024-02-14T07:11:24.198Z,8.51
2024-02-14T07:12:24.257Z,8.51
2024-02-14T07:13:24.182Z,8.51
2024-02-14T07:14:24.156Z,8.54
2024-02-14T07:15:24.226Z,8.55
2024-02-14T07:16:24.146Z,8.55
2024-02-14T07:17:24.159Z,8.58
2024-02-14T07:18:24.252Z,8.55
2024-02-14T07:19:24.273Z,8.60
2024-02-14T07:20:24.094Z,8.58
2024-02-14T07:21:24.106Z,8.53
2024-02-14T07:22:24.096Z,8.57
2024-02-14T07:23:24.084Z,8.58
2024-02-14T07:24:24.071Z,8.57
2024-02-14T07:25:24.060Z,8.62
2024-02-14T07:26:24.037Z,8.57
2024-02-14T07:27:24.063Z,8.62
2024-02-14T07:28:24.009Z,8.63
2024-02-14T07:29:24.045Z,8.62
2024-02-14T07:30:24.086Z,8.68
2024-02-14T07:31:23.997Z,8.65
2024-02-14T07:32:23.987Z,8.66
2024-02-14T07:33:24.055Z,8.65
2024-02-14T07:34:24.039Z,8.65
2024-02-14T07:35:23.933Z,8.65
2024-02-14T07:36:23.943Z,8.71
2024-02-14T07:37:23.914Z,8.68
2024-02-14T07:38:23.896Z,8.69
2024-02-14T07:39:23.903Z,8.71
2024-02-14T07:40:23.893Z,8.71
2024-02-14T07:41:23.887Z,8.76
2024-02-14T07:42:23.897Z,8.73
2024-02-14T07:43:23.850Z,8.69
2024-02-14T07:44:23.858Z,8.72
2024-02-14T07:45:23.836Z,8.73
2024-02-14T07:46:23.825Z,8.72
2024-02-14T07:47:23.843Z,8.76
2024-02-14T07:48:23.924Z,8.72
2024-02-14T07:49:23.849Z,8.73
2024-02-14T07:50:23.860Z,8.76
2024-02-14T07:51:23.789Z,8.76
2024-02-14T07:52:23.760Z,8.78
2024-02-14T07:53:23.759Z,8.76
2024-02-14T07:54:23.742Z,8.75
2024-02-14T07:55:23.747Z,8.76
2024-02-14T07:56:23.740Z,8.75
2024-02-14T07:57:23.860Z,8.78
2024-02-14T07:58:23.724Z,8.75
2024-02-14T07:59:23.678Z,8.76
2024-02-14T08:00:24.218Z,8.75
2024-02-14T08:01:23.677Z,8.73
2024-02-14T08:02:23.649Z,8.75
2024-02-14T08:03:23.646Z,8.78
2024-02-14T08:04:23.769Z,8.76
2024-02-14T08:05:23.618Z,8.75
2024-02-14T08:06:23.682Z,8.78
2024-02-14T08:07:23.601Z,8.79
2024-02-14T08:08:23.615Z,8.81
2024-02-14T08:09:23.579Z,8.81
2024-02-14T08:10:23.582Z,8.79
2024-02-14T08:11:23.558Z,8.81
2024-02-14T08:12:23.570Z,8.76
2024-02-14T08:13:23.540Z,8.76
2024-02-14T08:14:23.544Z,8.78
2024-02-14T08:15:23.513Z,8.83
2024-02-14T08:16:23.493Z,8.81
2024-02-14T08:17:23.589Z,8.83
2024-02-14T08:18:23.573Z,8.81
2024-02-14T08:19:23.632Z,8.84
2024-02-14T08:20:23.537Z,8.86
2024-02-14T08:21:24.037Z,8.79
2024-02-14T08:22:23.425Z,8.81
2024-02-14T08:23:23.449Z,8.81
2024-02-14T08:24:23.471Z,8.81
2024-02-14T08:25:23.410Z,8.76
2024-02-14T08:26:23.403Z,8.76
2024-02-14T08:27:23.566Z,8.76
2024-02-14T08:28:23.374Z,8.75
2024-02-14T08:29:23.371Z,8.78
2024-02-14T08:30:23.393Z,8.81
2024-02-14T08:31:23.433Z,8.81
2024-02-14T08:32:25.129Z,8.86
2024-02-14T08:33:23.437Z,8.86
2024-02-14T08:34:23.499Z,8.86
2024-02-14T08:35:23.311Z,8.86
2024-02-14T08:36:23.329Z,8.86
2024-02-14T08:37:23.275Z,8.86
2024-02-14T08:38:23.289Z,8.86
2024-02-14T08:39:23.257Z,8.87
2024-02-14T08:40:23.279Z,8.84
2024-02-14T08:41:23.266Z,8.84
2024-02-14T08:42:23.228Z,8.81
2024-02-14T08:43:23.212Z,8.83
2024-02-14T08:44:23.216Z,8.86
2024-02-14T08:45:23.195Z,8.84
2024-02-14T08:46:23.209Z,8.84
2024-02-14T08:47:23.185Z,8.87
2024-02-14T08:48:23.299Z,8.87
2024-02-14T08:49:23.305Z,8.90
2024-02-14T08:50:23.211Z,8.93
2024-02-14T08:51:23.140Z,8.96
2024-02-14T08:52:23.133Z,8.99
2024-02-14T08:53:23.109Z,8.99
2024-02-14T08:54:23.805Z,8.99
2024-02-14T08:55:23.107Z,8.99
2024-02-14T08:56:23.176Z,9.01
2024-02-14T08:57:23.071Z,9.02
2024-02-14T08:58:23.783Z,9.04
2024-02-14T08:59:23.049Z,9.04
2024-02-14T09:00:23.289Z,9.04
2024-02-14T09:01:23.176Z,9.05
2024-02-14T09:02:23.680Z,9.09
2024-02-14T09:03:23.194Z,9.12
2024-02-14T09:04:23.134Z,9.12
2024-02-14T09:05:23.016Z,9.13
2024-02-14T09:06:23.066Z,9.13
2024-02-14T09:07:22.983Z,9.13
2024-02-14T09:08:22.965Z,9.15
2024-02-14T09:09:22.981Z,9.10
2024-02-14T09:10:22.969Z,9.15
2024-02-14T09:11:22.954Z,9.15
2024-02-14T09:12:22.963Z,9.15
2024-02-14T09:13:22.905Z,9.16
2024-02-14T09:14:22.884Z,9.16
2024-02-14T09:15:22.905Z,9.15
2024-02-14T09:16:22.893Z,9.12
2024-02-14T09:17:22.884Z,9.15
2024-02-14T09:18:22.923Z,9.13
2024-02-14T09:19:22.997Z,9.09
2024-02-14T09:20:22.945Z,9.10
2024-02-14T09:21:22.964Z,9.13
2024-02-14T09:22:22.801Z,9.15
2024-02-14T09:23:22.821Z,9.20
2024-02-14T09:24:22.855Z,9.23
2024-02-14T09:25:22.773Z,9.20
2024-02-14T09:26:22.790Z,9.21
2024-02-14T09:27:22.868Z,9.24
2024-02-14T09:28:22.741Z,9.23
2024-02-14T09:29:22.735Z,9.23
2024-02-14T09:30:31.633Z,9.18
2024-02-14T09:31:22.712Z,9.16
2024-02-14T09:32:22.723Z,9.16
2024-02-14T09:33:22.869Z,9.13
2024-02-14T09:34:22.813Z,9.18
2024-02-14T09:35:22.661Z,9.20
2024-02-14T09:36:22.776Z,9.20
2024-02-14T09:37:22.646Z,9.23
2024-02-14T09:38:22.679Z,9.24
2024-02-14T09:39:22.650Z,9.25
2024-02-14T09:40:22.616Z,9.28
2024-02-14T09:41:22.610Z,9.32
2024-02-14T09:42:22.609Z,9.32
2024-02-14T09:43:22.593Z,9.34
2024-02-14T09:44:22.572Z,9.28
2024-02-14T09:45:25.754Z,9.30
2024-02-14T09:46:22.564Z,9.30
2024-02-14T09:47:22.590Z,9.32
2024-02-14T09:48:23.505Z,9.28
2024-02-14T09:49:22.693Z,9.24
2024-02-14T09:50:22.508Z,9.32
2024-02-14T09:51:22.544Z,9.31
2024-02-14T09:52:22.486Z,9.31
2024-02-14T09:53:22.474Z,9.38
2024-02-14T09:54:22.537Z,9.39
2024-02-14T09:55:22.479Z,9.38
2024-02-14T09:56:22.440Z,9.40
2024-02-14T09:57:22.463Z,9.39
2024-02-14T09:58:22.420Z,9.43
2024-02-14T09:59:22.425Z,9.42
2024-02-14T10:00:22.466Z,9.48
2024-02-14T10:01:22.410Z,9.40
2024-02-14T10:02:22.386Z,9.42
2024-02-14T10:03:22.379Z,9.40
2024-02-14T10:04:25.416Z,9.42
2024-02-14T10:05:22.373Z,9.42
2024-02-14T10:06:22.457Z,9.42
2024-02-14T10:07:22.395Z,9.43
2024-02-14T10:08:22.320Z,9.45
2024-02-14T10:09:22.317Z,9.43
2024-02-14T10:10:22.312Z,9.43
2024-02-14T10:11:22.320Z,9.43
2024-02-14T10:12:22.309Z,9.45
2024-02-14T10:13:22.286Z,9.40
2024-02-14T10:14:22.264Z,9.43
2024-02-14T10:15:22.288Z,9.39
2024-02-14T10:16:25.057Z,9.35
2024-02-14T10:17:22.228Z,9.39
2024-02-14T10:18:22.298Z,9.43
2024-02-14T10:19:22.344Z,9.45
2024-02-14T10:20:22.217Z,9.46
2024-02-14T10:21:22.279Z,9.45
2024-02-14T10:22:22.188Z,9.43
2024-02-14T10:23:22.186Z,9.43
2024-02-14T10:24:22.189Z,9.43
2024-02-14T10:25:22.179Z,9.42
2024-02-14T10:26:22.160Z,9.40
2024-02-14T10:27:22.207Z,9.46
2024-02-14T10:28:27.198Z,9.48
2024-02-14T10:29:22.121Z,9.49
2024-02-14T10:30:22.104Z,9.53
2024-02-14T10:31:22.087Z,9.52
2024-02-14T10:32:22.081Z,9.50
2024-02-14T10:33:27.800Z,9.50
2024-02-14T10:34:22.225Z,9.49
2024-02-14T10:35:22.124Z,9.45
2024-02-14T10:36:22.060Z,9.42
2024-02-14T10:37:22.018Z,9.49
2024-02-14T10:38:22.016Z,9.52
2024-02-14T10:39:22.007Z,9.53
2024-02-14T10:40:21.999Z,9.49
2024-02-14T10:41:21.987Z,9.49
2024-02-14T10:42:21.963Z,9.50
2024-02-14T10:43:21.981Z,9.53
2024-02-14T10:44:21.959Z,9.56
2024-02-14T10:45:21.972Z,9.49
2024-02-14T10:46:21.957Z,9.56
2024-02-14T10:47:21.919Z,9.50
2024-02-14T10:48:23.887Z,9.49
2024-02-14T10:49:22.446Z,9.52
2024-02-14T10:50:21.889Z,9.56
2024-02-14T10:51:21.892Z,9.57
2024-02-14T10:52:21.884Z,9.57
2024-02-14T10:53:21.866Z,9.56
2024-02-14T10:54:21.895Z,9.57
2024-02-14T10:55:21.828Z,9.57
2024-02-14T10:56:21.853Z,9.56
2024-02-14T10:57:21.851Z,9.58
2024-02-14T10:58:21.804Z,9.56
2024-02-14T10:59:21.824Z,9.61
2024-02-14T11:00:21.823Z,9.58
2024-02-14T11:01:21.947Z,9.60
2024-02-14T11:02:23.328Z,9.57
2024-02-14T11:03:21.850Z,9.60
2024-02-14T11:04:21.860Z,9.60
2024-02-14T11:05:21.735Z,9.57
2024-02-14T11:06:21.844Z,9.56
2024-02-14T11:07:21.744Z,9.57
2024-02-14T11:08:21.712Z,9.57
2024-02-14T11:09:21.760Z,9.57
2024-02-14T11:10:21.773Z,9.58
2024-02-14T11:11:21.665Z,9.56
2024-02-14T11:12:21.889Z,9.53
2024-02-14T11:13:21.641Z,9.60
2024-02-14T11:14:21.626Z,9.58
2024-02-14T11:15:21.657Z,9.53
2024-02-14T11:16:21.606Z,9.52
2024-02-14T11:17:21.610Z,9.58
2024-02-14T11:18:21.700Z,9.57
2024-02-14T11:19:21.872Z,9.53
2024-02-14T11:20:21.705Z,9.53
2024-02-14T11:21:21.698Z,9.57
2024-02-14T11:22:21.556Z,9.57
2024-02-14T11:23:21.916Z,9.61
2024-02-14T11:24:21.559Z,9.63
2024-02-14T11:25:21.518Z,9.56
2024-02-14T11:26:21.524Z,9.58
2024-02-14T11:27:33.088Z,9.61
2024-02-14T11:28:21.503Z,9.68
2024-02-14T11:29:24.134Z,9.66
2024-02-14T11:30:21.480Z,9.61
2024-02-14T11:31:21.476Z,9.66
2024-02-14T11:32:21.447Z,9.67
2024-02-14T11:33:21.811Z,9.71
2024-02-14T11:34:21.475Z,9.70
2024-02-14T11:35:21.477Z,9.73
2024-02-14T11:36:21.461Z,9.76
2024-02-14T11:37:21.394Z,9.73
2024-02-14T11:38:21.380Z,9.76
2024-02-14T11:39:21.392Z,9.76
2024-02-14T11:40:21.351Z,9.76
2024-02-14T11:41:21.376Z,9.79
2024-02-14T11:42:22.537Z,9.79
2024-02-14T11:43:21.336Z,9.78
2024-02-14T11:44:21.368Z,9.82
2024-02-14T11:45:21.404Z,9.83
2024-02-14T11:46:21.301Z,9.83
2024-02-14T11:47:21.313Z,9.83
2024-02-14T11:48:21.437Z,9.88
2024-02-14T11:49:21.334Z,9.89
2024-02-14T11:50:21.288Z,9.89
2024-02-14T11:51:21.252Z,9.91
2024-02-14T11:52:21.879Z,9.97
2024-02-14T11:53:21.220Z,10.01
2024-02-14T11:54:21.287Z,10.00
2024-02-14T11:55:21.480Z,10.00
2024-02-14T11:56:21.208Z,9.97
2024-02-14T11:57:21.241Z,9.99
2024-02-14T11:58:21.158Z,10.03
2024-02-14T11:59:21.496Z,10.03
2024-02-14T12:00:21.191Z,10.04
2024-02-14T12:01:21.138Z,10.00
2024-02-14T12:02:21.120Z,10.00
2024-02-14T12:03:21.138Z,10.03
2024-02-14T12:04:21.204Z,10.04
2024-02-14T12:05:21.181Z,10.04
2024-02-14T12:06:21.194Z,10.01
2024-02-14T12:07:21.201Z,10.01
2024-02-14T12:08:21.253Z,10.03
2024-02-14T12:09:21.089Z,10.04
2024-02-14T12:10:21.195Z,10.03
2024-02-14T12:11:21.110Z,10.04
2024-02-14T12:12:21.120Z,10.04
2024-02-14T12:13:21.001Z,10.04
2024-02-14T12:14:21.297Z,10.10
2024-02-14T12:15:21.177Z,10.14
2024-02-14T12:16:20.978Z,10.19
2024-02-14T12:17:20.977Z,10.24
2024-02-14T12:18:21.341Z,10.22
2024-02-14T12:19:21.142Z,10.24
2024-02-14T12:20:21.009Z,10.28
2024-02-14T12:21:20.982Z,10.30
2024-02-14T12:22:20.919Z,10.36
2024-02-14T12:23:20.914Z,10.37
2024-02-14T12:24:20.918Z,10.37
2024-02-14T12:25:20.908Z,10.37
2024-02-14T12:26:20.911Z,10.33
2024-02-14T12:27:20.971Z,10.37
2024-02-14T12:28:20.880Z,10.26
2024-02-14T12:29:20.915Z,10.33
2024-02-14T12:30:20.976Z,10.25
2024-02-14T12:31:20.806Z,10.28
2024-02-14T12:32:20.836Z,10.25
2024-02-14T12:33:20.945Z,10.32
2024-02-14T12:34:24.078Z,10.34
2024-02-14T12:35:20.947Z,10.40
2024-02-14T12:36:20.839Z,10.42
2024-02-14T12:37:20.750Z,10.39
2024-02-14T12:38:20.769Z,10.39
2024-02-14T12:39:20.772Z,10.34
2024-02-14T12:40:20.744Z,10.37
2024-02-14T12:41:20.729Z,10.42
2024-02-14T12:42:20.742Z,10.40
2024-02-14T12:43:20.689Z,10.36
2024-02-14T12:44:20.709Z,10.36
2024-02-14T12:45:20.879Z,10.42
2024-02-14T12:46:20.713Z,10.40
2024-02-14T12:47:20.655Z,10.39
2024-02-14T12:48:20.769Z,10.37
2024-02-14T12:49:20.693Z,10.34
2024-02-14T12:50:20.693Z,10.40
2024-02-14T12:51:20.882Z,10.40
2024-02-14T12:52:20.598Z,10.40
2024-02-14T12:53:20.600Z,10.40
2024-02-14T12:54:20.633Z,10.39
2024-02-14T12:55:20.601Z,10.33
2024-02-14T12:56:20.567Z,10.37
2024-02-14T12:57:21.367Z,10.34
2024-02-14T12:58:20.574Z,10.37
2024-02-14T12:59:20.550Z,10.37
2024-02-14T13:00:20.626Z,10.39
2024-02-14T13:01:20.604Z,10.40
2024-02-14T13:02:20.516Z,10.39
2024-02-14T13:03:20.618Z,10.33
2024-02-14T13:04:20.494Z,10.37
2024-02-14T13:05:20.460Z,10.34
2024-02-14T13:06:20.547Z,10.32
2024-02-14T13:07:20.456Z,10.34
2024-02-14T13:08:20.428Z,10.36
2024-02-14T13:09:20.446Z,10.42
2024-02-14T13:10:20.449Z,10.40
2024-02-14T13:11:20.422Z,10.42
2024-02-14T13:12:20.399Z,10.39
2024-02-14T13:13:20.390Z,10.34
2024-02-14T13:14:20.380Z,10.36
2024-02-14T13:15:20.403Z,10.37
2024-02-14T13:16:20.359Z,10.40
2024-02-14T13:17:20.412Z,10.42
2024-02-14T13:18:20.862Z,10.40